createdAt,value
2018-08-13T00:02:01.298Z,5.20
2018-08-13T00:04:33.257Z,5.77
2018-08-13T00:07:03.864Z,7.17
2018-08-13T00:09:39.604Z,6.00
2018-08-13T00:12:12.151Z,5.50
2018-08-13T00:14:46.439Z,6.73
2018-08-13T00:17:18.256Z,5.40
2018-08-13T00:19:48.820Z,5.30
2018-08-13T00:22:19.780Z,5.67
2018-08-13T00:24:50.411Z,4.87
2018-08-13T00:27:20.882Z,5.70
2018-08-13T00:29:52.304Z,5.00
2018-08-13T00:32:24.124Z,5.33
2018-08-13T00:34:54.555Z,5.67
2018-08-13T00:37:25.783Z,4.40
2018-08-13T00:39:56.918Z,5.87
2018-08-13T00:42:27.730Z,5.20
2018-08-13T00:44:58.323Z,4.90
2018-08-13T00:47:29.183Z,5.33
2018-08-13T00:49:59.696Z,5.27
2018-08-13T00:52:30.216Z,5.47
2018-08-13T00:55:01.736Z,4.47
2018-08-13T00:57:32.247Z,4.60
2018-08-13T01:00:03.407Z,6.57
2018-08-13T01:02:33.840Z,5.30
2018-08-13T01:05:04.934Z,5.53
2018-08-13T01:07:35.606Z,5.63
2018-08-13T01:10:10.481Z,5.70
2018-08-13T01:12:42.072Z,5.80
2018-08-13T01:15:15.801Z,7.70
2018-08-13T01:17:49.924Z,5.07
2018-08-13T01:20:22.862Z,5.50
2018-08-13T01:22:55.044Z,5.60
2018-08-13T01:25:25.469Z,5.17
2018-08-13T01:27:57.093Z,5.47
2018-08-13T01:30:27.859Z,5.20
2018-08-13T01:32:58.197Z,5.80
2018-08-13T01:35:29.238Z,6.10
2018-08-13T01:37:59.635Z,5.40
2018-08-13T01:40:30.140Z,5.50
2018-08-13T01:43:01.534Z,4.73
2018-08-13T01:45:31.965Z,5.33
2018-08-13T01:48:02.511Z,5.93
2018-08-13T01:50:33.085Z,5.70
2018-08-13T01:53:03.607Z,5.37
2018-08-13T01:55:34.044Z,5.03
2018-08-13T01:58:04.957Z,5.73
2018-08-13T02:00:35.685Z,5.60
2018-08-13T02:03:07.966Z,5.90
2018-08-13T02:05:38.523Z,5.30
2018-08-13T02:08:09.648Z,5.47
2018-08-13T02:10:40.161Z,5.13
2018-08-13T02:13:10.694Z,5.03
2018-08-13T02:15:42.040Z,5.27
2018-08-13T02:18:13.449Z,5.77
2018-08-13T02:20:44.550Z,5.77
2018-08-13T02:23:15.275Z,7.03
2018-08-13T02:25:45.886Z,5.63
2018-08-13T02:28:16.636Z,5.83
2018-08-13T02:30:47.295Z,5.63
2018-08-13T02:33:17.710Z,5.17
2018-08-13T02:35:48.559Z,5.87
2018-08-13T02:38:18.993Z,5.20
2018-08-13T02:40:49.557Z,5.77
2018-08-13T02:43:21.022Z,5.20
2018-08-13T02:45:51.854Z,5.40
2018-08-13T02:48:22.661Z,5.63
2018-08-13T02:50:53.248Z,6.80
2018-08-13T02:53:24.793Z,5.40
2018-08-13T02:55:55.334Z,5.13
2018-08-13T02:58:26.863Z,4.63
2018-08-13T03:00:59.155Z,10.57
2018-08-13T03:03:29.583Z,5.33
2018-08-13T03:06:01.007Z,5.43
2018-08-13T03:08:32.750Z,6.13
2018-08-13T03:11:04.916Z,5.70
2018-08-13T03:13:35.446Z,5.30
2018-08-13T03:16:07.123Z,6.63
2018-08-13T03:18:37.738Z,5.17
2018-08-13T03:21:08.102Z,6.47
2018-08-13T03:23:38.881Z,6.97
2018-08-13T03:26:10.178Z,5.77
2018-08-13T03:28:40.645Z,4.93
2018-08-13T03:31:11.136Z,5.27
2018-08-13T03:33:42.273Z,5.77
2018-08-13T03:36:12.940Z,6.33
2018-08-13T03:38:43.386Z,5.10
2018-08-13T03:41:14.145Z,8.40
2018-08-13T03:43:45.179Z,6.23
2018-08-13T03:46:16.378Z,5.57
2018-08-13T03:48:46.921Z,5.93
2018-08-13T03:51:17.376Z,19.73
2018-08-13T03:53:52.063Z,7.73
2018-08-13T03:56:22.413Z,6.53
2018-08-13T03:58:53.168Z,6.37
2018-08-13T04:01:23.726Z,9.40
2018-08-13T04:03:55.045Z,7.17
2018-08-13T04:06:25.769Z,7.10
2018-08-13T04:08:56.469Z,23.23
2018-08-13T04:11:26.988Z,10.63
2018-08-13T04:13:57.493Z,8.43
2018-08-13T04:16:28.650Z,5.47
2018-08-13T04:18:59.664Z,5.97
2018-08-13T04:21:30.114Z,6.20
2018-08-13T04:24:00.789Z,6.10
2018-08-13T04:26:31.281Z,5.73
2018-08-13T04:29:02.477Z,6.53
2018-08-13T04:31:33.725Z,12.00
2018-08-13T04:34:04.228Z,17.00
2018-08-13T04:36:36.563Z,7.20
2018-08-13T04:39:11.827Z,5.40
2018-08-13T04:41:43.373Z,6.40
2018-08-13T04:44:18.274Z,6.30
2018-08-13T04:46:48.723Z,5.87
2018-08-13T04:49:19.445Z,6.77
2018-08-13T04:51:50.231Z,10.30
2018-08-13T04:54:23.541Z,7.47
2018-08-13T04:56:55.023Z,5.50
2018-08-13T04:59:26.304Z,5.37
2018-08-13T05:01:58.504Z,5.23
2018-08-13T05:04:28.950Z,6.13
2018-08-13T05:07:00.035Z,6.47
2018-08-13T05:09:31.138Z,5.47
2018-08-13T05:12:02.199Z,5.50
2018-08-13T05:14:33.511Z,5.97
2018-08-13T05:17:04.158Z,6.67
2018-08-13T05:19:34.967Z,6.60
2018-08-13T05:22:05.597Z,6.03
2018-08-13T05:24:36.111Z,5.97
2018-08-13T05:27:07.123Z,6.33
2018-08-13T05:29:38.365Z,6.10
2018-08-13T05:32:08.940Z,6.60
2018-08-13T05:34:39.611Z,6.67
2018-08-13T05:37:10.083Z,7.23
2018-08-13T05:39:41.555Z,7.23
2018-08-13T05:42:14.481Z,8.83
2018-08-13T05:44:45.636Z,7.80
2018-08-13T05:47:16.090Z,6.97
2018-08-13T05:49:47.174Z,7.60
2018-08-13T05:52:18.420Z,7.87
2018-08-13T05:54:48.784Z,7.67
2018-08-13T05:57:20.633Z,7.20
2018-08-13T05:59:52.408Z,6.90
2018-08-13T06:02:22.832Z,7.63
2018-08-13T06:04:53.165Z,6.23
2018-08-13T06:07:23.517Z,6.10
2018-08-13T06:09:53.888Z,6.43
2018-08-13T06:12:24.303Z,6.07
2018-08-13T06:14:54.584Z,6.03
2018-08-13T06:17:25.173Z,7.30
2018-08-13T06:19:55.539Z,7.13
2018-08-13T06:22:25.930Z,6.97
2018-08-13T06:24:56.259Z,5.80
2018-08-13T06:27:26.740Z,5.70
2018-08-13T06:29:57.201Z,11.20
2018-08-13T06:32:27.507Z,9.17
2018-08-13T06:34:57.857Z,8.37
2018-08-13T06:37:28.379Z,7.67
2018-08-13T06:39:58.831Z,15.70
2018-08-13T06:42:29.231Z,6.57
2018-08-13T06:44:59.628Z,5.77
2018-08-13T06:47:30.013Z,6.73
2018-08-13T06:50:00.398Z,6.83
2018-08-13T06:52:30.719Z,6.77
2018-08-13T06:55:01.080Z,7.43
2018-08-13T06:57:33.107Z,6.57
2018-08-13T07:00:03.873Z,6.90
2018-08-13T07:02:34.257Z,6.50
2018-08-13T07:05:05.884Z,7.00
2018-08-13T07:07:36.508Z,6.47
2018-08-13T07:10:11.269Z,6.90
2018-08-13T07:12:43.407Z,5.93
2018-08-13T07:15:15.149Z,7.37
2018-08-13T07:17:45.640Z,6.27
2018-08-13T07:20:17.882Z,6.53
2018-08-13T07:22:48.201Z,6.50
2018-08-13T07:25:18.596Z,6.13
2018-08-13T07:27:49.085Z,6.97
2018-08-13T07:30:19.357Z,6.33
2018-08-13T07:32:49.826Z,9.00
2018-08-13T07:35:20.221Z,8.00
2018-08-13T07:37:50.654Z,6.23
2018-08-13T07:40:21.003Z,6.23
2018-08-13T07:42:51.348Z,5.77
2018-08-13T07:45:21.761Z,10.00
2018-08-13T07:47:52.211Z,6.93
2018-08-13T07:50:22.634Z,5.73
2018-08-13T07:52:53.031Z,5.50
2018-08-13T07:55:23.446Z,6.07
2018-08-13T07:57:53.883Z,5.80
2018-08-13T08:00:24.256Z,5.47
2018-08-13T08:02:54.649Z,6.00
2018-08-13T08:05:25.098Z,5.27
2018-08-13T08:07:55.547Z,5.60
2018-08-13T08:10:25.930Z,5.70
2018-08-13T08:12:56.332Z,6.83
2018-08-13T08:15:26.715Z,7.40
2018-08-13T08:17:57.104Z,6.80
2018-08-13T08:20:27.578Z,6.77
2018-08-13T08:22:57.955Z,6.83
2018-08-13T08:25:28.367Z,6.10
2018-08-13T08:27:58.754Z,5.67
2018-08-13T08:30:29.155Z,5.33
2018-08-13T08:32:59.586Z,5.73
2018-08-13T08:35:30.069Z,6.27
2018-08-13T08:38:02.403Z,5.93
2018-08-13T08:40:32.897Z,5.90
2018-08-13T08:43:03.691Z,5.63
2018-08-13T08:45:34.403Z,5.47
2018-08-13T08:48:05.884Z,5.43
2018-08-13T08:50:39.285Z,5.13
2018-08-13T08:53:09.715Z,5.70
2018-08-13T08:55:40.185Z,6.00
2018-08-13T08:58:11.415Z,6.00
2018-08-13T09:00:41.894Z,5.40
2018-08-13T09:03:12.350Z,6.00
2018-08-13T09:05:42.879Z,6.10
2018-08-13T09:08:13.444Z,6.67
2018-08-13T09:10:44.414Z,7.50
2018-08-13T09:13:14.775Z,7.13
2018-08-13T09:15:45.346Z,6.70
2018-08-13T09:18:32.397Z,7.37
2018-08-13T09:21:19.520Z,7.43
2018-08-13T09:24:07.089Z,7.43
2018-08-13T09:26:54.241Z,7.30
2018-08-13T09:29:41.492Z,6.97
2018-08-13T09:32:35.965Z,7.90
2018-08-13T09:35:21.885Z,7.77
2018-08-13T09:37:52.439Z,9.10
2018-08-13T09:40:23.001Z,8.33
2018-08-13T09:42:54.853Z,10.53
2018-08-13T09:45:25.705Z,9.67
2018-08-13T09:47:56.694Z,10.10
2018-08-13T09:50:28.509Z,11.37
2018-08-13T09:52:58.946Z,10.47
2018-08-13T09:55:29.901Z,11.47
2018-08-13T09:58:00.912Z,10.47
2018-08-13T10:00:37.658Z,12.03
2018-08-13T10:03:08.135Z,11.70
2018-08-13T10:05:38.853Z,11.40
2018-08-13T10:08:09.449Z,11.57
2018-08-13T10:10:39.884Z,12.87
2018-08-13T10:13:10.768Z,12.83
2018-08-13T10:15:41.958Z,15.17
2018-08-13T10:18:12.973Z,14.10
2018-08-13T10:20:43.529Z,14.20
2018-08-13T10:23:13.980Z,13.37
2018-08-13T10:25:44.524Z,13.93
2018-08-13T10:28:15.024Z,15.53
2018-08-13T10:30:45.531Z,15.37
2018-08-13T10:33:16.036Z,15.80
2018-08-13T10:35:46.445Z,16.47
2018-08-13T10:38:16.965Z,16.43
2018-08-13T10:40:47.533Z,15.10
2018-08-13T10:43:19.108Z,16.40
2018-08-13T10:45:49.637Z,16.30
2018-08-13T10:48:20.995Z,16.83
2018-08-13T10:50:51.537Z,18.47
2018-08-13T10:53:22.021Z,17.17
2018-08-13T10:55:52.645Z,20.03
2018-08-13T10:58:23.123Z,18.87
2018-08-13T11:00:53.603Z,19.17
2018-08-13T11:03:24.024Z,20.47
2018-08-13T11:05:54.495Z,20.33
2018-08-13T11:08:25.055Z,19.70
2018-08-13T11:10:55.799Z,17.10
2018-08-13T11:13:26.809Z,20.60
2018-08-13T11:15:57.400Z,22.07
2018-08-13T11:18:28.124Z,21.23
2018-08-13T11:20:59.249Z,19.83
2018-08-13T11:23:30.045Z,20.10
2018-08-13T11:26:00.860Z,21.20
2018-08-13T11:28:32.340Z,19.47
2018-08-13T11:31:03.403Z,20.60
2018-08-13T11:33:35.276Z,19.60
2018-08-13T11:36:05.788Z,19.90
2018-08-13T11:38:36.324Z,19.27
2018-08-13T11:41:06.927Z,20.83
2018-08-13T11:43:38.411Z,20.50
2018-08-13T11:46:08.954Z,19.10
2018-08-13T11:48:39.455Z,19.63
2018-08-13T11:51:09.965Z,20.03
2018-08-13T11:53:40.350Z,19.57
2018-08-13T11:56:11.680Z,19.90
2018-08-13T11:58:42.195Z,18.53
2018-08-13T12:01:12.680Z,17.23
2018-08-13T12:03:43.096Z,18.50
2018-08-13T12:06:14.787Z,18.57
2018-08-13T12:08:45.236Z,17.83
2018-08-13T12:11:15.802Z,18.13
2018-08-13T12:13:47.151Z,16.70
2018-08-13T12:16:17.576Z,18.07
2018-08-13T12:18:48.556Z,17.83
2018-08-13T12:21:19.064Z,18.23
2018-08-13T12:23:49.440Z,18.30
2018-08-13T12:26:19.900Z,17.83
2018-08-13T12:28:50.860Z,17.93
2018-08-13T12:31:21.359Z,17.63
2018-08-13T12:33:52.761Z,19.60
2018-08-13T12:36:23.279Z,17.40
2018-08-13T12:38:54.613Z,19.20
2018-08-13T12:41:25.242Z,17.37
2018-08-13T12:43:56.028Z,16.17
2018-08-13T12:46:26.612Z,16.27
2018-08-13T12:48:57.200Z,15.53
2018-08-13T12:51:27.551Z,15.03
2018-08-13T12:53:57.956Z,15.97
2018-08-13T12:56:28.371Z,16.13
2018-08-13T12:58:58.867Z,15.83
2018-08-13T13:01:29.195Z,16.33
2018-08-13T13:03:59.687Z,15.13
2018-08-13T13:06:30.052Z,16.50
2018-08-13T13:09:00.653Z,15.77
2018-08-13T13:11:30.959Z,14.80
2018-08-13T13:14:01.344Z,14.47
2018-08-13T13:16:31.724Z,15.33
2018-08-13T13:19:02.216Z,16.17
2018-08-13T13:21:32.682Z,15.33
2018-08-13T13:24:03.889Z,16.47
2018-08-13T13:26:34.825Z,15.57
2018-08-13T13:29:06.412Z,15.43
2018-08-13T13:31:36.979Z,15.10
2018-08-13T13:34:07.427Z,15.43
2018-08-13T13:36:37.861Z,14.60
2018-08-13T13:39:09.652Z,16.03
2018-08-13T13:41:40.017Z,15.23
2018-08-13T13:44:10.516Z,15.10
2018-08-13T13:46:40.900Z,17.07
2018-08-13T13:49:11.474Z,15.93
2018-08-13T13:51:41.841Z,14.00
2018-08-13T13:54:12.468Z,16.53
2018-08-13T13:56:42.852Z,25.70
2018-08-13T13:59:13.306Z,16.87
2018-08-13T14:01:43.711Z,18.17
2018-08-13T14:04:14.216Z,18.70
2018-08-13T14:06:44.556Z,18.80
2018-08-13T14:09:14.930Z,17.33
2018-08-13T14:11:45.263Z,18.30
2018-08-13T14:14:15.627Z,16.70
2018-08-13T14:16:46.108Z,17.17
2018-08-13T14:19:16.432Z,16.90
2018-08-13T14:21:46.756Z,17.10
2018-08-13T14:24:17.117Z,15.80
2018-08-13T14:26:47.431Z,16.87
2018-08-13T14:29:17.828Z,23.63
2018-08-13T14:31:48.585Z,23.20
2018-08-13T14:34:19.188Z,24.47
2018-08-13T14:36:49.658Z,17.80
2018-08-13T14:39:19.994Z,18.57
2018-08-13T14:41:50.347Z,17.90
2018-08-13T14:44:20.712Z,16.57
2018-08-13T14:46:51.572Z,16.80
2018-08-13T14:49:22.117Z,15.87
2018-08-13T14:51:53.599Z,15.87
2018-08-13T14:54:24.079Z,16.90
2018-08-13T14:56:54.600Z,17.27
2018-08-13T14:59:25.041Z,16.20
2018-08-13T15:01:55.644Z,16.70
2018-08-13T15:04:26.152Z,17.33
2018-08-13T15:06:57.448Z,30.67
2018-08-13T15:09:27.863Z,18.40
2018-08-13T15:11:58.287Z,21.40
2018-08-13T15:14:28.677Z,19.70
2018-08-13T15:16:59.279Z,16.60
2018-08-13T15:19:29.657Z,17.40
2018-08-13T15:22:00.011Z,45.47
2018-08-13T15:24:30.383Z,28.40
2018-08-13T15:27:00.917Z,46.40
2018-08-13T15:29:31.514Z,48.07
2018-08-13T15:32:01.874Z,55.93
2018-08-13T15:34:33.125Z,22.30
2018-08-13T15:37:03.613Z,20.23
2018-08-13T15:39:34.010Z,18.10
2018-08-13T15:42:04.545Z,18.80
2018-08-13T15:44:35.086Z,18.17
2018-08-13T15:47:07.159Z,17.80
2018-08-13T15:49:37.686Z,19.07
2018-08-13T15:52:08.119Z,18.87
2018-08-13T15:54:38.501Z,23.53
2018-08-13T15:57:08.987Z,46.67
2018-08-13T15:59:39.475Z,18.13
2018-08-13T16:02:09.905Z,19.70
2018-08-13T16:04:40.291Z,19.10
2018-08-13T16:07:12.742Z,18.00
2018-08-13T16:09:43.058Z,17.33
2018-08-13T16:12:14.490Z,30.60
2018-08-13T16:14:44.909Z,22.70
2018-08-13T16:17:15.352Z,36.37
2018-08-13T16:19:45.715Z,30.60
2018-08-13T16:22:16.137Z,15.87
2018-08-13T16:24:46.560Z,16.80
2018-08-13T16:27:16.977Z,15.23
2018-08-13T16:29:47.383Z,15.70
2018-08-13T16:32:17.860Z,16.30
2018-08-13T16:34:48.259Z,16.30
2018-08-13T16:37:18.620Z,21.37
2018-08-13T16:39:48.933Z,20.00
2018-08-13T16:42:19.296Z,22.70
2018-08-13T16:44:49.753Z,15.67
2018-08-13T16:47:20.233Z,19.20
2018-08-13T16:49:50.692Z,16.40
2018-08-13T16:52:21.250Z,21.10
2018-08-13T16:54:51.644Z,20.10
2018-08-13T16:57:22.061Z,17.37
2018-08-13T16:59:52.524Z,16.40
2018-08-13T17:02:22.882Z,17.27
2018-08-13T17:04:53.255Z,46.90
2018-08-13T17:07:23.555Z,26.00
2018-08-13T17:09:53.905Z,19.30
2018-08-13T17:12:24.398Z,19.33
2018-08-13T17:14:54.888Z,19.97
2018-08-13T17:17:25.321Z,19.53
2018-08-13T17:19:55.791Z,17.50
2018-08-13T17:22:26.239Z,17.07
2018-08-13T17:24:56.637Z,15.57
2018-08-13T17:27:27.041Z,15.13
2018-08-13T17:29:57.465Z,16.87
2018-08-13T17:32:27.943Z,16.27
2018-08-13T17:34:58.392Z,16.70
2018-08-13T17:37:29.344Z,16.90
2018-08-13T17:39:59.685Z,17.90
2018-08-13T17:42:30.085Z,16.73
2018-08-13T17:45:00.535Z,18.33
2018-08-13T17:47:31.000Z,19.03
2018-08-13T17:50:01.427Z,20.27
2018-08-13T17:52:32.362Z,19.47
2018-08-13T17:55:02.752Z,19.60
2018-08-13T17:57:33.127Z,18.70
2018-08-13T18:00:03.852Z,24.20
2018-08-13T18:02:34.305Z,20.90
2018-08-13T18:05:05.770Z,19.30
2018-08-13T18:07:36.277Z,19.60
2018-08-13T18:10:10.040Z,20.20
2018-08-13T18:12:41.125Z,19.47
2018-08-13T18:15:14.666Z,19.70
2018-08-13T18:17:46.048Z,20.90
2018-08-13T18:20:16.478Z,20.70
2018-08-13T18:22:46.919Z,20.27
2018-08-13T18:25:17.440Z,21.57
2018-08-13T18:27:49.224Z,22.70
2018-08-13T18:30:22.548Z,22.60
2018-08-13T18:32:53.523Z,22.63
2018-08-13T18:35:24.160Z,23.50
2018-08-13T18:37:54.550Z,22.50
2018-08-13T18:40:31.639Z,22.20
2018-08-13T18:43:01.989Z,22.97
2018-08-13T18:45:32.387Z,23.00
2018-08-13T18:48:02.914Z,22.63
2018-08-13T18:50:33.278Z,23.67
2018-08-13T18:53:03.691Z,25.23
2018-08-13T18:55:34.164Z,23.93
2018-08-13T18:58:05.302Z,29.87
2018-08-13T19:00:35.650Z,29.87
2018-08-13T19:03:06.455Z,26.30
2018-08-13T19:05:37.008Z,28.70
2018-08-13T19:08:07.442Z,28.27
2018-08-13T19:10:38.135Z,27.90
2018-08-13T19:13:08.484Z,26.77
2018-08-13T19:15:39.362Z,27.83
2018-08-13T19:18:09.751Z,28.77
2018-08-13T19:20:40.156Z,29.83
2018-08-13T19:23:10.629Z,32.10
2018-08-13T19:25:40.996Z,27.90
2018-08-13T19:28:11.430Z,26.83
2018-08-13T19:30:41.900Z,28.80
2018-08-13T19:33:16.081Z,29.80
2018-08-13T19:35:46.563Z,28.13
2018-08-13T19:38:16.986Z,28.40
2018-08-13T19:40:47.464Z,29.23
2018-08-13T19:43:18.558Z,33.33
2018-08-13T19:45:49.087Z,30.17
2018-08-13T19:48:20.370Z,37.47
2018-08-13T19:50:50.707Z,32.33
2018-08-13T19:53:21.111Z,28.67
2018-08-13T19:55:52.140Z,29.07
2018-08-13T19:58:22.579Z,29.03
2018-08-13T20:00:53.506Z,30.40
2018-08-13T20:03:41.260Z,29.87
2018-08-13T20:06:12.135Z,28.70
2018-08-13T20:08:42.765Z,29.40
2018-08-13T20:11:13.180Z,28.40
2018-08-13T20:13:43.678Z,35.63
2018-08-13T20:16:15.691Z,32.17
2018-08-13T20:18:46.188Z,29.37
2018-08-13T20:21:16.977Z,28.33
2018-08-13T20:23:47.364Z,29.80
2018-08-13T20:26:17.949Z,29.80
2018-08-13T20:28:48.735Z,27.90
2018-08-13T20:31:19.168Z,30.73
2018-08-13T20:33:49.607Z,27.20
2018-08-13T20:36:20.086Z,30.97
2018-08-13T20:38:50.585Z,29.50
2018-08-13T20:41:20.910Z,30.27
2018-08-13T20:43:51.259Z,28.07
2018-08-13T20:46:21.706Z,27.63
2018-08-13T20:48:52.112Z,29.07
2018-08-13T20:51:22.535Z,28.33
2018-08-13T20:53:53.864Z,29.83
2018-08-13T20:56:24.397Z,30.80
2018-08-13T20:58:54.820Z,30.33
2018-08-13T21:01:25.192Z,29.53
2018-08-13T21:03:55.577Z,28.63
2018-08-13T21:06:26.048Z,27.87
2018-08-13T21:08:56.857Z,26.60
2018-08-13T21:11:27.369Z,25.17
2018-08-13T21:13:57.795Z,25.37
2018-08-13T21:16:29.135Z,26.17
2018-08-13T21:18:59.531Z,26.63
2018-08-13T21:21:30.022Z,27.40
2018-08-13T21:24:01.767Z,28.03
2018-08-13T21:26:32.385Z,27.50
2018-08-13T21:29:03.966Z,29.13
2018-08-13T21:31:34.445Z,26.30
2018-08-13T21:34:04.761Z,26.67
2018-08-13T21:36:35.399Z,26.63
2018-08-13T21:39:09.743Z,27.43
2018-08-13T21:41:40.380Z,27.30
2018-08-13T21:44:10.833Z,26.27
2018-08-13T21:46:41.269Z,26.80
2018-08-13T21:49:11.683Z,24.80
2018-08-13T21:51:42.069Z,27.60
2018-08-13T21:54:13.085Z,27.30
2018-08-13T21:56:43.771Z,26.37
2018-08-13T21:59:14.273Z,26.63
2018-08-13T22:01:47.608Z,28.50
2018-08-13T22:04:18.577Z,26.77
2018-08-13T22:06:48.891Z,27.30
2018-08-13T22:09:19.246Z,27.33
2018-08-13T22:11:49.649Z,26.17
2018-08-13T22:14:20.026Z,29.17
2018-08-13T22:16:50.412Z,26.00
2018-08-13T22:19:20.744Z,25.80
2018-08-13T22:21:51.135Z,26.57
2018-08-13T22:24:38.264Z,27.03
2018-08-13T22:27:08.718Z,26.27
2018-08-13T22:29:39.202Z,26.37
2018-08-13T22:32:09.591Z,25.30
2018-08-13T22:34:40.615Z,25.50
2018-08-13T22:37:11.442Z,25.67
2018-08-13T22:39:41.859Z,25.70
2018-08-13T22:42:12.203Z,26.83
2018-08-13T22:44:42.512Z,25.33
2018-08-13T22:47:12.890Z,27.37
2018-08-13T22:49:43.239Z,26.73
2018-08-13T22:52:13.680Z,24.67
2018-08-13T22:54:43.935Z,26.50
2018-08-13T22:57:14.379Z,25.60
2018-08-13T22:59:44.676Z,25.47
2018-08-13T23:02:15.101Z,26.20
2018-08-13T23:04:45.407Z,24.73
2018-08-13T23:07:15.733Z,25.30
2018-08-13T23:09:45.997Z,25.40
2018-08-13T23:12:16.381Z,26.13
2018-08-13T23:14:46.691Z,25.03
2018-08-13T23:17:17.030Z,24.87
2018-08-13T23:19:47.339Z,25.30
2018-08-13T23:23:01.104Z,24.60
2018-08-13T23:25:32.768Z,25.30
2018-08-13T23:28:04.831Z,25.03
2018-08-13T23:30:35.683Z,25.10
2018-08-13T23:33:07.884Z,26.20
2018-08-13T23:35:38.311Z,24.97
2018-08-13T23:38:08.716Z,25.03
2018-08-13T23:40:39.093Z,26.33
2018-08-13T23:43:09.464Z,26.67
2018-08-13T23:45:39.918Z,25.30
2018-08-13T23:48:10.374Z,25.10
2018-08-13T23:50:40.740Z,25.10
2018-08-13T23:53:11.117Z,25.30
2018-08-13T23:55:41.416Z,26.03
2018-08-13T23:58:13.968Z,25.30
